sensor_id;sensor_type;location;lat;lon;timestamp;temperature;humidity
33269;DHT22;19640;50.944;5.260;2022-11-20T00:00:53;3.60;99.90
33269;DHT22;19640;50.944;5.260;2022-11-20T00:03:19;3.60;99.90
33269;DHT22;19640;50.944;5.260;2022-11-20T00:05:44;3.60;99.90
33269;DHT22;19640;50.944;5.260;2022-11-20T00:08:11;3.70;99.90
33269;DHT22;19640;50.944;5.260;2022-11-20T00:10:38;3.80;99.90
33269;DHT22;19640;50.944;5.260;2022-11-20T00:13:04;3.80;99.90
33269;DHT22;19640;50.944;5.260;2022-11-20T00:15:30;3.70;99.90
33269;DHT22;19640;50.944;5.260;2022-11-20T00:17:56;3.90;99.90
33269;DHT22;19640;50.944;5.260;2022-11-20T00:20:22;3.90;99.90
33269;DHT22;19640;50.944;5.260;2022-11-20T00:22:47;4.00;99.90
33269;DHT22;19640;50.944;5.260;2022-11-20T00:25:13;4.00;99.90
33269;DHT22;19640;50.944;5.260;2022-11-20T00:27:39;4.10;99.90
33269;DHT22;19640;50.944;5.260;2022-11-20T00:30:05;3.80;99.90
33269;DHT22;19640;50.944;5.260;2022-11-20T00:32:31;3.60;99.90
33269;DHT22;19640;50.944;5.260;2022-11-20T00:34:57;3.30;99.90
33269;DHT22;19640;50.944;5.260;2022-11-20T00:37:22;3.40;99.90
33269;DHT22;19640;50.944;5.260;2022-11-20T00:39:48;3.40;99.90
33269;DHT22;19640;50.944;5.260;2022-11-20T00:42:13;3.70;99.90
33269;DHT22;19640;50.944;5.260;2022-11-20T00:44:39;3.90;99.90
33269;DHT22;19640;50.944;5.260;2022-11-20T00:47:05;4.20;99.90
33269;DHT22;19640;50.944;5.260;2022-11-20T00:49:30;4.20;99.90
33269;DHT22;19640;50.944;5.260;2022-11-20T00:51:56;4.40;99.90
33269;DHT22;19640;50.944;5.260;2022-11-20T00:54:22;4.60;99.90
33269;DHT22;19640;50.944;5.260;2022-11-20T00:56:47;4.80;99.90
33269;DHT22;19640;50.944;5.260;2022-11-20T00:59:13;5.10;99.90
33269;DHT22;19640;50.944;5.260;2022-11-20T01:01:38;5.10;99.90
33269;DHT22;19640;50.944;5.260;2022-11-20T01:04:04;5.10;99.90
33269;DHT22;19640;50.944;5.260;2022-11-20T01:06:33;5.20;99.90
33269;DHT22;19640;50.944;5.260;2022-11-20T01:09:03;5.10;99.90
33269;DHT22;19640;50.944;5.260;2022-11-20T01:11:31;5.00;99.90
33269;DHT22;19640;50.944;5.260;2022-11-20T01:13:58;5.00;99.90
33269;DHT22;19640;50.944;5.260;2022-11-20T01:16:30;4.90;99.90
33269;DHT22;19640;50.944;5.260;2022-11-20T01:18:58;5.10;99.90
33269;DHT22;19640;50.944;5.260;2022-11-20T01:21:34;5.10;99.90
33269;DHT22;19640;50.944;5.260;2022-11-20T01:24:03;5.10;99.90
33269;DHT22;19640;50.944;5.260;2022-11-20T01:26:33;5.10;99.90
33269;DHT22;19640;50.944;5.260;2022-11-20T01:29:00;5.10;99.90
33269;DHT22;19640;50.944;5.260;2022-11-20T01:31:30;5.00;99.90
33269;DHT22;19640;50.944;5.260;2022-11-20T01:34:02;4.80;99.90
33269;DHT22;19640;50.944;5.260;2022-11-20T01:36:29;4.70;99.90
33269;DHT22;19640;50.944;5.260;2022-11-20T01:38:56;4.80;99.90
33269;DHT22;19640;50.944;5.260;2022-11-20T01:41:24;4.60;99.90
33269;DHT22;19640;50.944;5.260;2022-11-20T01:44:11;4.50;99.90
33269;DHT22;19640;50.944;5.260;2022-11-20T01:46:38;4.60;99.90
33269;DHT22;19640;50.944;5.260;2022-11-20T01:49:18;4.60;99.90
33269;DHT22;19640;50.944;5.260;2022-11-20T01:51:57;4.80;99.90
33269;DHT22;19640;50.944;5.260;2022-11-20T01:54:49;4.70;99.90
33269;DHT22;19640;50.944;5.260;2022-11-20T01:57:17;4.70;99.90
33269;DHT22;19640;50.944;5.260;2022-11-20T01:59:50;4.70;99.90
33269;DHT22;19640;50.944;5.260;2022-11-20T02:02:20;4.90;99.90
33269;DHT22;19640;50.944;5.260;2022-11-20T02:04:47;4.90;99.90
33269;DHT22;19640;50.944;5.260;2022-11-20T02:07:13;5.00;99.90
33269;DHT22;19640;50.944;5.260;2022-11-20T02:09:39;5.00;99.90
33269;DHT22;19640;50.944;5.260;2022-11-20T02:12:05;4.80;99.90
33269;DHT22;19640;50.944;5.260;2022-11-20T02:14:51;4.80;99.90
33269;DHT22;19640;50.944;5.260;2022-11-20T02:17:16;5.10;99.90
33269;DHT22;19640;50.944;5.260;2022-11-20T02:19:42;5.10;99.90
33269;DHT22;19640;50.944;5.260;2022-11-20T02:22:16;5.20;99.90
33269;DHT22;19640;50.944;5.260;2022-11-20T02:24:45;5.00;99.90
33269;DHT22;19640;50.944;5.260;2022-11-20T02:27:13;5.10;99.90
33269;DHT22;19640;50.944;5.260;2022-11-20T02:29:43;5.10;99.90
33269;DHT22;19640;50.944;5.260;2022-11-20T02:32:27;5.20;99.90
33269;DHT22;19640;50.944;5.260;2022-11-20T02:34:54;5.30;99.90
33269;DHT22;19640;50.944;5.260;2022-11-20T02:37:20;5.20;99.90
33269;DHT22;19640;50.944;5.260;2022-11-20T02:39:48;5.00;99.90
33269;DHT22;19640;50.944;5.260;2022-11-20T02:42:14;5.00;99.90
33269;DHT22;19640;50.944;5.260;2022-11-20T02:44:40;4.90;99.90
33269;DHT22;19640;50.944;5.260;2022-11-20T02:47:06;4.80;99.90
33269;DHT22;19640;50.944;5.260;2022-11-20T02:49:32;4.80;99.90
33269;DHT22;19640;50.944;5.260;2022-11-20T02:51:58;4.70;99.90
33269;DHT22;19640;50.944;5.260;2022-11-20T02:54:24;4.80;99.90
33269;DHT22;19640;50.944;5.260;2022-11-20T02:56:50;4.90;99.90
33269;DHT22;19640;50.944;5.260;2022-11-20T02:59:16;4.70;99.90
33269;DHT22;19640;50.944;5.260;2022-11-20T03:01:41;4.70;99.90
33269;DHT22;19640;50.944;5.260;2022-11-20T03:04:07;4.80;99.90
33269;DHT22;19640;50.944;5.260;2022-11-20T03:06:33;4.90;99.90
33269;DHT22;19640;50.944;5.260;2022-11-20T03:08:59;5.00;99.90
33269;DHT22;19640;50.944;5.260;2022-11-20T03:11:24;5.00;99.90
33269;DHT22;19640;50.944;5.260;2022-11-20T03:13:50;5.00;99.90
33269;DHT22;19640;50.944;5.260;2022-11-20T03:16:18;4.90;99.90
33269;DHT22;19640;50.944;5.260;2022-11-20T03:18:44;4.90;99.90
33269;DHT22;19640;50.944;5.260;2022-11-20T03:21:11;4.90;99.90
33269;DHT22;19640;50.944;5.260;2022-11-20T03:23:38;5.00;99.90
33269;DHT22;19640;50.944;5.260;2022-11-20T03:26:15;5.00;99.90
33269;DHT22;19640;50.944;5.260;2022-11-20T03:28:45;5.00;99.90
33269;DHT22;19640;50.944;5.260;2022-11-20T03:31:13;5.00;99.90
33269;DHT22;19640;50.944;5.260;2022-11-20T03:33:41;5.00;99.90
33269;DHT22;19640;50.944;5.260;2022-11-20T03:36:09;5.10;99.90
33269;DHT22;19640;50.944;5.260;2022-11-20T03:38:36;5.10;99.90
33269;DHT22;19640;50.944;5.260;2022-11-20T03:41:04;5.20;99.90
33269;DHT22;19640;50.944;5.260;2022-11-20T03:43:30;5.00;99.90
33269;DHT22;19640;50.944;5.260;2022-11-20T03:45:56;5.00;99.90
33269;DHT22;19640;50.944;5.260;2022-11-20T03:48:22;4.80;99.90
33269;DHT22;19640;50.944;5.260;2022-11-20T03:50:48;4.80;99.90
33269;DHT22;19640;50.944;5.260;2022-11-20T03:53:14;5.00;99.90
33269;DHT22;19640;50.944;5.260;2022-11-20T03:55:40;5.10;99.90
33269;DHT22;19640;50.944;5.260;2022-11-20T03:58:05;5.20;99.90
33269;DHT22;19640;50.944;5.260;2022-11-20T04:00:31;5.30;99.90
33269;DHT22;19640;50.944;5.260;2022-11-20T04:03:01;5.30;99.90
33269;DHT22;19640;50.944;5.260;2022-11-20T04:05:27;5.30;99.90
33269;DHT22;19640;50.944;5.260;2022-11-20T04:07:53;5.40;99.90
33269;DHT22;19640;50.944;5.260;2022-11-20T04:10:19;5.40;99.90
33269;DHT22;19640;50.944;5.260;2022-11-20T04:12:45;5.20;99.90
33269;DHT22;19640;50.944;5.260;2022-11-20T04:15:10;5.10;99.90
33269;DHT22;19640;50.944;5.260;2022-11-20T04:17:36;5.10;99.90
33269;DHT22;19640;50.944;5.260;2022-11-20T04:20:02;5.20;99.90
33269;DHT22;19640;50.944;5.260;2022-11-20T04:22:28;4.80;99.90
33269;DHT22;19640;50.944;5.260;2022-11-20T04:24:54;4.90;99.90
33269;DHT22;19640;50.944;5.260;2022-11-20T04:27:20;5.00;99.90
33269;DHT22;19640;50.944;5.260;2022-11-20T04:29:46;5.00;99.90
33269;DHT22;19640;50.944;5.260;2022-11-20T04:32:11;5.10;99.90
33269;DHT22;19640;50.944;5.260;2022-11-20T04:34:37;5.00;99.90
33269;DHT22;19640;50.944;5.260;2022-11-20T04:37:02;5.00;99.90
33269;DHT22;19640;50.944;5.260;2022-11-20T04:39:28;4.90;99.90
33269;DHT22;19640;50.944;5.260;2022-11-20T04:41:54;5.00;99.90
33269;DHT22;19640;50.944;5.260;2022-11-20T04:44:39;4.80;99.90
33269;DHT22;19640;50.944;5.260;2022-11-20T04:47:05;5.00;99.90
33269;DHT22;19640;50.944;5.260;2022-11-20T04:49:31;4.90;99.90
33269;DHT22;19640;50.944;5.260;2022-11-20T04:51:57;4.80;99.90
33269;DHT22;19640;50.944;5.260;2022-11-20T04:54:23;4.70;99.90
33269;DHT22;19640;50.944;5.260;2022-11-20T04:56:48;5.00;99.90
33269;DHT22;19640;50.944;5.260;2022-11-20T04:59:14;5.10;99.90
33269;DHT22;19640;50.944;5.260;2022-11-20T05:01:40;5.00;99.90
33269;DHT22;19640;50.944;5.260;2022-11-20T05:04:05;5.10;99.90
33269;DHT22;19640;50.944;5.260;2022-11-20T05:06:31;5.00;99.90
33269;DHT22;19640;50.944;5.260;2022-11-20T05:08:57;4.90;99.90
33269;DHT22;19640;50.944;5.260;2022-11-20T05:11:23;4.90;99.90
33269;DHT22;19640;50.944;5.260;2022-11-20T05:13:51;4.90;99.90
33269;DHT22;19640;50.944;5.260;2022-11-20T05:16:19;4.70;99.90
33269;DHT22;19640;50.944;5.260;2022-11-20T05:18:45;4.90;99.90
33269;DHT22;19640;50.944;5.260;2022-11-20T05:21:11;5.00;99.90
33269;DHT22;19640;50.944;5.260;2022-11-20T05:23:38;5.00;99.90
33269;DHT22;19640;50.944;5.260;2022-11-20T05:26:06;5.10;99.90
33269;DHT22;19640;50.944;5.260;2022-11-20T05:28:33;5.00;99.90
33269;DHT22;19640;50.944;5.260;2022-11-20T05:31:07;4.70;99.90
33269;DHT22;19640;50.944;5.260;2022-11-20T05:33:36;4.70;99.90
33269;DHT22;19640;50.944;5.260;2022-11-20T05:36:03;4.90;99.90
33269;DHT22;19640;50.944;5.260;2022-11-20T05:38:29;5.00;99.90
33269;DHT22;19640;50.944;5.260;2022-11-20T05:40:55;4.80;99.90
33269;DHT22;19640;50.944;5.260;2022-11-20T05:43:20;4.60;99.90
33269;DHT22;19640;50.944;5.260;2022-11-20T05:45:55;4.40;99.90
33269;DHT22;19640;50.944;5.260;2022-11-20T05:48:21;4.30;99.90
33269;DHT22;19640;50.944;5.260;2022-11-20T05:50:47;4.50;99.90
33269;DHT22;19640;50.944;5.260;2022-11-20T05:53:13;4.70;99.90
33269;DHT22;19640;50.944;5.260;2022-11-20T05:55:39;4.90;99.90
33269;DHT22;19640;50.944;5.260;2022-11-20T05:58:04;4.80;99.90
33269;DHT22;19640;50.944;5.260;2022-11-20T06:00:30;4.80;99.90
33269;DHT22;19640;50.944;5.260;2022-11-20T06:02:55;4.80;99.90
33269;DHT22;19640;50.944;5.260;2022-11-20T06:05:21;4.90;99.90
33269;DHT22;19640;50.944;5.260;2022-11-20T06:07:47;5.00;99.90
33269;DHT22;19640;50.944;5.260;2022-11-20T06:10:13;5.00;99.90
33269;DHT22;19640;50.944;5.260;2022-11-20T06:12:38;4.90;99.90
33269;DHT22;19640;50.944;5.260;2022-11-20T06:15:05;5.00;99.90
33269;DHT22;19640;50.944;5.260;2022-11-20T06:17:31;5.00;99.90
33269;DHT22;19640;50.944;5.260;2022-11-20T06:19:56;5.00;99.90
33269;DHT22;19640;50.944;5.260;2022-11-20T06:22:22;5.10;99.90
33269;DHT22;19640;50.944;5.260;2022-11-20T06:24:48;5.00;99.90
33269;DHT22;19640;50.944;5.260;2022-11-20T06:27:14;5.10;99.90
33269;DHT22;19640;50.944;5.260;2022-11-20T06:29:39;5.00;99.90
33269;DHT22;19640;50.944;5.260;2022-11-20T06:32:05;4.80;99.90
33269;DHT22;19640;50.944;5.260;2022-11-20T06:34:30;4.90;99.90
33269;DHT22;19640;50.944;5.260;2022-11-20T06:36:56;5.00;99.90
33269;DHT22;19640;50.944;5.260;2022-11-20T06:39:22;5.10;99.90
33269;DHT22;19640;50.944;5.260;2022-11-20T06:41:48;4.90;99.90
33269;DHT22;19640;50.944;5.260;2022-11-20T06:44:13;4.60;99.90
33269;DHT22;19640;50.944;5.260;2022-11-20T06:46:39;4.40;99.90
33269;DHT22;19640;50.944;5.260;2022-11-20T06:49:04;4.40;99.90
33269;DHT22;19640;50.944;5.260;2022-11-20T06:51:31;4.10;99.90
33269;DHT22;19640;50.944;5.260;2022-11-20T06:53:56;4.00;99.90
33269;DHT22;19640;50.944;5.260;2022-11-20T06:56:22;3.80;99.90
33269;DHT22;19640;50.944;5.260;2022-11-20T06:58:48;3.80;99.90
33269;DHT22;19640;50.944;5.260;2022-11-20T07:01:14;4.10;99.90
33269;DHT22;19640;50.944;5.260;2022-11-20T07:03:41;4.40;99.90
33269;DHT22;19640;50.944;5.260;2022-11-20T07:06:07;4.60;99.90
33269;DHT22;19640;50.944;5.260;2022-11-20T07:08:34;4.70;99.90
33269;DHT22;19640;50.944;5.260;2022-11-20T07:11:02;4.90;99.90
33269;DHT22;19640;50.944;5.260;2022-11-20T07:13:28;4.90;99.90
33269;DHT22;19640;50.944;5.260;2022-11-20T07:15:54;4.60;99.90
33269;DHT22;19640;50.944;5.260;2022-11-20T07:18:20;4.60;99.90
33269;DHT22;19640;50.944;5.260;2022-11-20T07:20:46;4.30;99.90
33269;DHT22;19640;50.944;5.260;2022-11-20T07:23:12;4.30;99.90
33269;DHT22;19640;50.944;5.260;2022-11-20T07:25:37;4.30;99.90
33269;DHT22;19640;50.944;5.260;2022-11-20T07:28:03;4.30;99.90
33269;DHT22;19640;50.944;5.260;2022-11-20T07:30:29;4.20;99.90
33269;DHT22;19640;50.944;5.260;2022-11-20T07:32:56;4.00;99.90
33269;DHT22;19640;50.944;5.260;2022-11-20T07:35:25;4.10;99.90
33269;DHT22;19640;50.944;5.260;2022-11-20T07:37:50;4.10;99.90
33269;DHT22;19640;50.944;5.260;2022-11-20T07:40:17;4.00;99.90
33269;DHT22;19640;50.944;5.260;2022-11-20T07:42:50;4.20;99.90
33269;DHT22;19640;50.944;5.260;2022-11-20T07:45:17;4.50;99.90
33269;DHT22;19640;50.944;5.260;2022-11-20T07:47:43;4.80;99.90
33269;DHT22;19640;50.944;5.260;2022-11-20T07:50:09;4.90;99.90
33269;DHT22;19640;50.944;5.260;2022-11-20T07:52:35;5.10;99.90
33269;DHT22;19640;50.944;5.260;2022-11-20T07:55:01;5.20;99.90
33269;DHT22;19640;50.944;5.260;2022-11-20T07:57:26;5.20;99.90
33269;DHT22;19640;50.944;5.260;2022-11-20T07:59:52;5.60;99.90
33269;DHT22;19640;50.944;5.260;2022-11-20T08:02:17;5.60;99.90
33269;DHT22;19640;50.944;5.260;2022-11-20T08:04:43;5.80;99.90
33269;DHT22;19640;50.944;5.260;2022-11-20T08:07:09;5.90;99.90
33269;DHT22;19640;50.944;5.260;2022-11-20T08:09:35;5.90;99.90
33269;DHT22;19640;50.944;5.260;2022-11-20T08:12:01;5.80;99.90
33269;DHT22;19640;50.944;5.260;2022-11-20T08:14:45;5.50;99.90
33269;DHT22;19640;50.944;5.260;2022-11-20T08:17:11;5.10;99.90
33269;DHT22;19640;50.944;5.260;2022-11-20T08:19:37;5.30;99.90
33269;DHT22;19640;50.944;5.260;2022-11-20T08:22:03;5.40;99.90
33269;DHT22;19640;50.944;5.260;2022-11-20T08:24:28;5.20;99.90
33269;DHT22;19640;50.944;5.260;2022-11-20T08:26:57;5.10;99.90
33269;DHT22;19640;50.944;5.260;2022-11-20T08:29:24;5.10;99.90
33269;DHT22;19640;50.944;5.260;2022-11-20T08:31:50;5.40;99.90
33269;DHT22;19640;50.944;5.260;2022-11-20T08:34:15;5.70;99.90
33269;DHT22;19640;50.944;5.260;2022-11-20T08:36:41;5.60;99.90
33269;DHT22;19640;50.944;5.260;2022-11-20T08:39:07;5.70;99.90
33269;DHT22;19640;50.944;5.260;2022-11-20T08:41:32;5.80;99.90
33269;DHT22;19640;50.944;5.260;2022-11-20T08:44:06;5.70;99.90
33269;DHT22;19640;50.944;5.260;2022-11-20T08:46:34;5.60;99.90
33269;DHT22;19640;50.944;5.260;2022-11-20T08:49:01;5.50;99.90
33269;DHT22;19640;50.944;5.260;2022-11-20T08:51:27;5.20;99.90
33269;DHT22;19640;50.944;5.260;2022-11-20T08:53:52;5.20;99.90
33269;DHT22;19640;50.944;5.260;2022-11-20T08:56:18;5.20;99.90
33269;DHT22;19640;50.944;5.260;2022-11-20T08:58:44;5.10;99.90
33269;DHT22;19640;50.944;5.260;2022-11-20T09:01:10;5.30;99.90
33269;DHT22;19640;50.944;5.260;2022-11-20T09:03:36;5.50;99.90
33269;DHT22;19640;50.944;5.260;2022-11-20T09:06:04;5.70;99.90
33269;DHT22;19640;50.944;5.260;2022-11-20T09:08:30;5.90;99.90
33269;DHT22;19640;50.944;5.260;2022-11-20T09:10:56;5.90;99.90
33269;DHT22;19640;50.944;5.260;2022-11-20T09:13:23;5.50;99.90
33269;DHT22;19640;50.944;5.260;2022-11-20T09:15:57;5.70;99.90
33269;DHT22;19640;50.944;5.260;2022-11-20T09:18:23;5.70;99.90
33269;DHT22;19640;50.944;5.260;2022-11-20T09:20:50;5.60;99.90
33269;DHT22;19640;50.944;5.260;2022-11-20T09:23:16;5.50;99.90
33269;DHT22;19640;50.944;5.260;2022-11-20T09:25:42;5.40;99.90
33269;DHT22;19640;50.944;5.260;2022-11-20T09:28:08;5.90;99.90
33269;DHT22;19640;50.944;5.260;2022-11-20T09:30:34;6.20;99.90
33269;DHT22;19640;50.944;5.260;2022-11-20T09:33:00;6.20;99.90
33269;DHT22;19640;50.944;5.260;2022-11-20T09:35:25;6.10;99.90
33269;DHT22;19640;50.944;5.260;2022-11-20T09:37:51;6.20;99.90
33269;DHT22;19640;50.944;5.260;2022-11-20T09:40:27;6.40;99.90
33269;DHT22;19640;50.944;5.260;2022-11-20T09:43:07;6.50;99.90
33269;DHT22;19640;50.944;5.260;2022-11-20T09:46:01;7.00;99.90
33269;DHT22;19640;50.944;5.260;2022-11-20T09:48:35;6.90;99.90
33269;DHT22;19640;50.944;5.260;2022-11-20T09:57:29;6.70;99.90
33269;DHT22;19640;50.944;5.260;2022-11-20T10:02:37;6.80;99.90
33269;DHT22;19640;50.944;5.260;2022-11-20T10:05:18;6.50;99.90
33269;DHT22;19640;50.944;5.260;2022-11-20T10:07:48;6.30;99.90
33269;DHT22;19640;50.944;5.260;2022-11-20T10:10:33;6.50;99.90
33269;DHT22;19640;50.944;5.260;2022-11-20T10:13:31;6.70;99.90
33269;DHT22;19640;50.944;5.260;2022-11-20T10:19:34;6.90;99.90
33269;DHT22;19640;50.944;5.260;2022-11-20T10:30:10;7.10;99.90
33269;DHT22;19640;50.944;5.260;2022-11-20T10:32:39;7.20;99.90
33269;DHT22;19640;50.944;5.260;2022-11-20T10:38:00;7.30;99.90
33269;DHT22;19640;50.944;5.260;2022-11-20T10:40:53;7.00;99.90
33269;DHT22;19640;50.944;5.260;2022-11-20T10:43:40;7.00;99.90
33269;DHT22;19640;50.944;5.260;2022-11-20T10:46:14;7.20;99.90
33269;DHT22;19640;50.944;5.260;2022-11-20T10:48:43;6.90;99.90
33269;DHT22;19640;50.944;5.260;2022-11-20T10:56:20;7.10;99.90
33269;DHT22;19640;50.944;5.260;2022-11-20T10:58:59;7.30;99.90
33269;DHT22;19640;50.944;5.260;2022-11-20T11:01:26;7.60;99.90
33269;DHT22;19640;50.944;5.260;2022-11-20T11:03:54;7.50;99.90
33269;DHT22;19640;50.944;5.260;2022-11-20T11:06:35;7.20;99.90
33269;DHT22;19640;50.944;5.260;2022-11-20T11:09:13;7.00;99.90
33269;DHT22;19640;50.944;5.260;2022-11-20T11:11:41;7.10;99.90
33269;DHT22;19640;50.944;5.260;2022-11-20T11:14:08;7.40;99.90
33269;DHT22;19640;50.944;5.260;2022-11-20T11:16:34;7.80;99.90
33269;DHT22;19640;50.944;5.260;2022-11-20T11:19:10;8.00;99.90
33269;DHT22;19640;50.944;5.260;2022-11-20T11:21:37;8.20;99.90
33269;DHT22;19640;50.944;5.260;2022-11-20T11:27:00;8.00;99.90
33269;DHT22;19640;50.944;5.260;2022-11-20T11:29:33;7.80;99.90
33269;DHT22;19640;50.944;5.260;2022-11-20T11:32:12;7.60;99.90
33269;DHT22;19640;50.944;5.260;2022-11-20T11:34:38;7.90;99.90
33269;DHT22;19640;50.944;5.260;2022-11-20T11:37:05;8.10;99.90
33269;DHT22;19640;50.944;5.260;2022-11-20T11:39:37;8.30;99.90
33269;DHT22;19640;50.944;5.260;2022-11-20T11:42:06;8.40;99.90
33269;DHT22;19640;50.944;5.260;2022-11-20T11:44:36;8.50;99.90
33269;DHT22;19640;50.944;5.260;2022-11-20T11:49:48;8.60;99.90
33269;DHT22;19640;50.944;5.260;2022-11-20T11:52:20;8.70;99.90
33269;DHT22;19640;50.944;5.260;2022-11-20T11:54:55;8.90;99.90
33269;DHT22;19640;50.944;5.260;2022-11-20T11:57:31;8.50;99.90
33269;DHT22;19640;50.944;5.260;2022-11-20T12:00:13;8.70;99.90
33269;DHT22;19640;50.944;5.260;2022-11-20T12:05:21;8.60;99.90
33269;DHT22;19640;50.944;5.260;2022-11-20T12:16:14;9.10;99.90
33269;DHT22;19640;50.944;5.260;2022-11-20T12:18:41;8.90;99.90
33269;DHT22;19640;50.944;5.260;2022-11-20T12:24:10;8.90;99.90
33269;DHT22;19640;50.944;5.260;2022-11-20T12:32:59;9.00;99.90
33269;DHT22;19640;50.944;5.260;2022-11-20T12:35:38;9.10;99.90
33269;DHT22;19640;50.944;5.260;2022-11-20T12:47:23;9.80;99.90
33269;DHT22;19640;50.944;5.260;2022-11-20T12:50:22;9.60;99.90
33269;DHT22;19640;50.944;5.260;2022-11-20T12:52:56;9.70;99.90
33269;DHT22;19640;50.944;5.260;2022-11-20T12:55:33;9.60;99.90
33269;DHT22;19640;50.944;5.260;2022-11-20T13:01:28;9.80;99.90
33269;DHT22;19640;50.944;5.260;2022-11-20T13:07:10;9.70;99.90
33269;DHT22;19640;50.944;5.260;2022-11-20T13:09:42;9.80;99.90
33269;DHT22;19640;50.944;5.260;2022-11-20T13:12:24;9.90;99.90
33269;DHT22;19640;50.944;5.260;2022-11-20T13:17:55;9.80;99.90
33269;DHT22;19640;50.944;5.260;2022-11-20T13:20:21;9.70;99.90
33269;DHT22;19640;50.944;5.260;2022-11-20T13:22:49;9.70;99.90
33269;DHT22;19640;50.944;5.260;2022-11-20T13:25:42;9.60;99.90
33269;DHT22;19640;50.944;5.260;2022-11-20T13:30:48;9.30;99.90
33269;DHT22;19640;50.944;5.260;2022-11-20T13:33:33;9.10;99.90
33269;DHT22;19640;50.944;5.260;2022-11-20T13:36:05;9.20;99.90
33269;DHT22;19640;50.944;5.260;2022-11-20T13:38:48;9.00;99.90
33269;DHT22;19640;50.944;5.260;2022-11-20T13:41:27;9.10;99.90
33269;DHT22;19640;50.944;5.260;2022-11-20T13:43:57;8.90;99.90
33269;DHT22;19640;50.944;5.260;2022-11-20T13:46:35;9.00;99.90
33269;DHT22;19640;50.944;5.260;2022-11-20T13:49:07;9.00;99.90
33269;DHT22;19640;50.944;5.260;2022-11-20T13:51:40;8.80;99.90
33269;DHT22;19640;50.944;5.260;2022-11-20T13:54:34;8.80;99.90
33269;DHT22;19640;50.944;5.260;2022-11-20T14:02:19;8.80;99.90
33269;DHT22;19640;50.944;5.260;2022-11-20T14:04:48;8.80;99.90
33269;DHT22;19640;50.944;5.260;2022-11-20T14:07:15;8.50;99.90
33269;DHT22;19640;50.944;5.260;2022-11-20T14:09:56;8.50;99.90
33269;DHT22;19640;50.944;5.260;2022-11-20T14:12:30;8.60;99.90
33269;DHT22;19640;50.944;5.260;2022-11-20T14:14:57;8.70;99.90
33269;DHT22;19640;50.944;5.260;2022-11-20T14:19:55;9.00;99.90
33269;DHT22;19640;50.944;5.260;2022-11-20T14:22:25;8.90;99.90
33269;DHT22;19640;50.944;5.260;2022-11-20T14:27:35;8.50;99.90
33269;DHT22;19640;50.944;5.260;2022-11-20T14:30:03;8.50;99.90
33269;DHT22;19640;50.944;5.260;2022-11-20T14:32:30;8.60;99.90
33269;DHT22;19640;50.944;5.260;2022-11-20T14:34:59;8.50;99.90
33269;DHT22;19640;50.944;5.260;2022-11-20T14:37:29;8.60;99.90
33269;DHT22;19640;50.944;5.260;2022-11-20T14:39:58;8.30;99.90
33269;DHT22;19640;50.944;5.260;2022-11-20T14:42:27;8.20;99.90
33269;DHT22;19640;50.944;5.260;2022-11-20T14:44:56;8.30;99.90
33269;DHT22;19640;50.944;5.260;2022-11-20T14:47:29;8.20;99.90
33269;DHT22;19640;50.944;5.260;2022-11-20T14:49:57;8.30;99.90
33269;DHT22;19640;50.944;5.260;2022-11-20T14:52:25;8.30;99.90
33269;DHT22;19640;50.944;5.260;2022-11-20T14:54:53;8.30;99.90
33269;DHT22;19640;50.944;5.260;2022-11-20T14:57:33;8.40;99.90
33269;DHT22;19640;50.944;5.260;2022-11-20T15:02:44;8.40;99.90
33269;DHT22;19640;50.944;5.260;2022-11-20T15:05:10;8.40;99.90
33269;DHT22;19640;50.944;5.260;2022-11-20T15:07:41;8.00;99.90
33269;DHT22;19640;50.944;5.260;2022-11-20T15:10:20;8.10;99.90
33269;DHT22;19640;50.944;5.260;2022-11-20T15:12:59;8.20;99.90
33269;DHT22;19640;50.944;5.260;2022-11-20T15:15:48;8.40;99.90
33269;DHT22;19640;50.944;5.260;2022-11-20T15:18:16;8.00;99.90
33269;DHT22;19640;50.944;5.260;2022-11-20T15:20:43;8.00;99.90
33269;DHT22;19640;50.944;5.260;2022-11-20T15:23:13;8.20;99.90
33269;DHT22;19640;50.944;5.260;2022-11-20T15:25:40;8.10;99.90
33269;DHT22;19640;50.944;5.260;2022-11-20T15:28:19;8.20;99.90
33269;DHT22;19640;50.944;5.260;2022-11-20T15:30:46;8.20;99.90
33269;DHT22;19640;50.944;5.260;2022-11-20T15:33:12;8.30;99.90
33269;DHT22;19640;50.944;5.260;2022-11-20T15:35:38;8.40;99.90
33269;DHT22;19640;50.944;5.260;2022-11-20T15:38:04;8.40;99.90
33269;DHT22;19640;50.944;5.260;2022-11-20T15:40:30;8.30;99.90
33269;DHT22;19640;50.944;5.260;2022-11-20T15:42:56;8.30;99.90
33269;DHT22;19640;50.944;5.260;2022-11-20T15:45:46;8.40;99.90
33269;DHT22;19640;50.944;5.260;2022-11-20T15:48:16;8.40;99.90
33269;DHT22;19640;50.944;5.260;2022-11-20T15:50:52;8.40;99.90
33269;DHT22;19640;50.944;5.260;2022-11-20T15:53:19;8.20;99.90
33269;DHT22;19640;50.944;5.260;2022-11-20T15:55:45;8.30;99.90
33269;DHT22;19640;50.944;5.260;2022-11-20T15:58:11;8.50;99.90
33269;DHT22;19640;50.944;5.260;2022-11-20T16:00:36;8.30;99.90
33269;DHT22;19640;50.944;5.260;2022-11-20T16:03:02;8.30;99.90
33269;DHT22;19640;50.944;5.260;2022-11-20T16:05:28;8.40;99.90
33269;DHT22;19640;50.944;5.260;2022-11-20T16:07:54;8.40;99.90
33269;DHT22;19640;50.944;5.260;2022-11-20T16:10:20;8.30;99.90
33269;DHT22;19640;50.944;5.260;2022-11-20T16:12:45;8.10;99.90
33269;DHT22;19640;50.944;5.260;2022-11-20T16:15:30;8.10;99.90
33269;DHT22;19640;50.944;5.260;2022-11-20T16:18:13;8.20;99.90
33269;DHT22;19640;50.944;5.260;2022-11-20T16:20:39;8.40;99.90
33269;DHT22;19640;50.944;5.260;2022-11-20T16:23:06;8.50;99.90
33269;DHT22;19640;50.944;5.260;2022-11-20T16:25:32;8.60;99.90
33269;DHT22;19640;50.944;5.260;2022-11-20T16:27:58;8.50;99.90
33269;DHT22;19640;50.944;5.260;2022-11-20T16:30:24;8.40;99.90
33269;DHT22;19640;50.944;5.260;2022-11-20T16:32:49;8.60;99.90
33269;DHT22;19640;50.944;5.260;2022-11-20T16:35:15;8.50;99.90
33269;DHT22;19640;50.944;5.260;2022-11-20T16:37:41;8.60;99.90
33269;DHT22;19640;50.944;5.260;2022-11-20T16:40:09;8.50;99.90
33269;DHT22;19640;50.944;5.260;2022-11-20T16:42:36;8.60;99.90
33269;DHT22;19640;50.944;5.260;2022-11-20T16:45:03;8.60;99.90
33269;DHT22;19640;50.944;5.260;2022-11-20T16:47:32;8.60;99.90
33269;DHT22;19640;50.944;5.260;2022-11-20T16:49:58;8.50;99.90
33269;DHT22;19640;50.944;5.260;2022-11-20T16:52:24;8.60;99.90
33269;DHT22;19640;50.944;5.260;2022-11-20T16:54:50;8.50;99.90
33269;DHT22;19640;50.944;5.260;2022-11-20T16:57:15;8.50;99.90
33269;DHT22;19640;50.944;5.260;2022-11-20T16:59:41;8.50;99.90
33269;DHT22;19640;50.944;5.260;2022-11-20T17:02:09;8.60;99.90
33269;DHT22;19640;50.944;5.260;2022-11-20T17:04:35;8.70;99.90
33269;DHT22;19640;50.944;5.260;2022-11-20T17:07:00;8.50;99.90
33269;DHT22;19640;50.944;5.260;2022-11-20T17:09:27;8.50;99.90
33269;DHT22;19640;50.944;5.260;2022-11-20T17:11:53;8.60;99.90
33269;DHT22;19640;50.944;5.260;2022-11-20T17:14:18;8.60;99.90
33269;DHT22;19640;50.944;5.260;2022-11-20T17:16:44;8.40;99.90
33269;DHT22;19640;50.944;5.260;2022-11-20T17:19:10;8.40;99.90
33269;DHT22;19640;50.944;5.260;2022-11-20T17:21:36;8.30;99.90
33269;DHT22;19640;50.944;5.260;2022-11-20T17:24:04;8.30;99.90